Time;durP1;ratioP1;P1;durP2;ratioP2;P2;SDS_P1;SDS_P2;PMS_P1;PMS_P2;Temp;Humidity;BMP_temperature;BMP_pressure;BME280_temperature;BME280_humidity;BME280_pressure;Samples;Min_cycle;Max_cycle;Signal;HPM_P1;HPM_P2
2021/05/11 00:02:03;;;;;;;2.08;0.93;;;14.80;99.90;;;;;;5093077;28;20206;-40
2021/05/11 00:04:30;;;;;;;0.50;0.50;;;14.80;99.90;;;;;;5093261;28;20236;-39
2021/05/11 00:06:57;;;;;;;1.42;0.80;;;14.80;99.90;;;;;;5093541;28;20211;-40
2021/05/11 00:09:24;;;;;;;0.47;0.47;;;14.80;99.90;;;;;;5093075;28;20240;-39
2021/05/11 00:11:51;;;;;;;0.70;0.70;;;14.80;99.90;;;;;;5093176;28;20289;-40
2021/05/11 00:14:18;;;;;;;0.80;0.60;;;14.70;99.90;;;;;;5092964;28;20245;-41
2021/05/11 00:16:45;;;;;;;3.45;0.90;;;14.70;99.90;;;;;;5093200;28;20308;-43
2021/05/11 00:19:15;;;;;;;2.17;0.63;;;14.70;99.90;;;;;;5092924;28;20618;-40
2021/05/11 00:21:42;;;;;;;0.80;0.80;;;14.70;99.90;;;;;;5092982;28;20297;-39
2021/05/11 00:24:10;;;;;;;0.80;0.60;;;14.70;99.90;;;;;;5092625;28;20330;-41
2021/05/11 00:26:38;;;;;;;0.80;0.80;;;14.70;99.90;;;;;;5092849;28;20215;-40
2021/05/11 00:29:05;;;;;;;2.05;0.80;;;14.70;99.90;;;;;;5092199;28;20207;-40
2021/05/11 00:31:32;;;;;;;0.80;0.70;;;14.70;99.90;;;;;;5092903;28;20214;-41
2021/05/11 00:33:59;;;;;;;1.80;0.80;;;14.70;99.90;;;;;;5092421;28;20290;-40
2021/05/11 00:36:27;;;;;;;0.75;0.70;;;14.60;99.90;;;;;;5092662;28;20306;-40
2021/05/11 00:38:54;;;;;;;1.35;1.25;;;14.60;99.90;;;;;;5092567;28;20546;-39
2021/05/11 00:41:21;;;;;;;0.57;0.57;;;14.60;99.90;;;;;;5092386;28;20293;-40
2021/05/11 00:43:48;;;;;;;0.82;0.82;;;14.50;99.90;;;;;;5092734;28;20260;-39
2021/05/11 00:46:16;;;;;;;0.80;0.70;;;14.50;99.90;;;;;;5092424;28;20242;-40
2021/05/11 00:48:43;;;;;;;0.80;0.60;;;14.50;99.90;;;;;;5092432;28;20207;-39
2021/05/11 00:51:11;;;;;;;0.80;0.80;;;14.50;99.90;;;;;;5092291;28;20263;-40
2021/05/11 00:53:41;;;;;;;0.98;0.90;;;14.50;99.90;;;;;;5092330;28;20400;-39
2021/05/11 00:56:11;;;;;;;0.60;0.60;;;14.50;99.90;;;;;;5092066;28;20309;-39
2021/05/11 00:58:39;;;;;;;1.23;0.60;;;14.40;99.90;;;;;;5092554;28;20301;-39
2021/05/11 01:01:06;;;;;;;1.15;0.75;;;14.40;99.90;;;;;;5092246;28;20202;-39
2021/05/11 01:03:33;;;;;;;1.23;0.57;;;14.40;99.90;;;;;;5092050;28;20264;-39
2021/05/11 01:06:00;;;;;;;0.73;0.73;;;14.40;99.90;;;;;;5092012;28;20661;-39
2021/05/11 01:08:27;;;;;;;0.60;0.60;;;14.30;99.90;;;;;;5092139;28;20248;-40
2021/05/11 01:10:54;;;;;;;1.10;0.80;;;14.30;99.90;;;;;;5091951;28;20286;-39
2021/05/11 01:13:21;;;;;;;0.75;0.75;;;14.20;99.90;;;;;;5092030;28;20725;-39
2021/05/11 01:15:51;;;;;;;1.23;0.60;;;14.30;99.90;;;;;;5092306;28;20245;-39
2021/05/11 01:18:26;;;;;;;0.70;0.70;;;14.30;99.90;;;;;;5092139;28;20297;-39
2021/05/11 01:20:57;;;;;;;1.08;0.80;;;14.20;99.90;;;;;;5091952;28;20297;-40
2021/05/11 01:26:17;;;;;;;0.70;0.70;;;14.30;99.90;;;;;;5091892;28;20305;-39
2021/05/11 01:28:51;;;;;;;1.23;0.80;;;14.30;99.90;;;;;;5092073;28;20705;-39
2021/05/11 01:31:49;;;;;;;0.70;0.70;;;14.30;99.90;;;;;;5091877;28;20520;-41
2021/05/11 01:45:46;;;;;;;1.15;0.85;;;14.30;99.90;;;;;;5095805;28;20322;-39
2021/05/11 01:48:27;;;;;;;1.85;0.93;;;14.30;99.90;;;;;;5095685;28;20297;-39
2021/05/11 01:51:08;;;;;;;0.93;0.80;;;14.30;99.90;;;;;;5095742;28;20301;-40
2021/05/11 01:53:49;;;;;;;2.03;0.88;;;14.30;99.90;;;;;;5095762;28;20245;-40
2021/05/11 01:56:48;;;;;;;1.17;1.00;;;14.30;99.90;;;;;;5095636;28;20286;-39
2021/05/11 02:10:53;;;;;;;1.85;0.70;;;14.10;99.90;;;;;;5095359;28;20211;-39
2021/05/11 02:24:21;;;;;;;0.73;0.73;;;13.90;99.90;;;;;;5094985;28;20329;-40
2021/05/11 02:26:49;;;;;;;1.02;0.95;;;13.90;99.90;;;;;;5095203;28;20246;-40
2021/05/11 02:29:17;;;;;;;0.90;0.70;;;13.90;99.90;;;;;;5094953;28;20230;-39
2021/05/11 02:31:44;;;;;;;1.05;0.90;;;13.90;99.90;;;;;;5094959;28;20210;-39
2021/05/11 02:34:11;;;;;;;1.33;0.82;;;13.90;99.90;;;;;;5094922;28;20513;-39
2021/05/11 02:36:38;;;;;;;2.30;1.52;;;13.90;99.90;;;;;;5095047;28;20241;-40
2021/05/11 02:39:07;;;;;;;2.75;1.05;;;13.90;99.90;;;;;;5095100;28;20242;-40
2021/05/11 02:41:34;;;;;;;1.27;1.10;;;14.00;99.90;;;;;;5094935;28;20286;-40
2021/05/11 02:44:01;;;;;;;1.75;0.80;;;14.00;99.90;;;;;;5094524;28;20264;-40
2021/05/11 02:46:28;;;;;;;1.95;1.60;;;14.00;99.90;;;;;;5094670;28;20294;-40
2021/05/11 02:48:56;;;;;;;0.70;0.70;;;14.00;99.90;;;;;;5094641;28;20669;-40
2021/05/11 02:51:23;;;;;;;1.42;1.33;;;14.00;99.90;;;;;;5094214;28;20494;-40
2021/05/11 02:53:50;;;;;;;0.90;0.90;;;14.00;99.90;;;;;;5094641;28;20237;-40
2021/05/11 02:56:17;;;;;;;1.88;0.70;;;14.00;99.90;;;;;;5094523;28;20297;-40
2021/05/11 02:58:48;;;;;;;0.90;0.90;;;14.00;99.90;;;;;;5094400;28;20230;-40
2021/05/11 03:01:15;;;;;;;1.13;0.95;;;14.00;99.90;;;;;;5094464;28;20677;-40
2021/05/11 03:03:43;;;;;;;2.03;0.95;;;14.00;99.90;;;;;;5094539;28;20276;-41
2021/05/11 03:06:11;;;;;;;1.00;0.90;;;14.00;99.90;;;;;;5094193;28;20259;-40
2021/05/11 03:08:41;;;;;;;1.60;0.93;;;14.00;99.90;;;;;;5094597;28;20214;-41
2021/05/11 03:11:08;;;;;;;2.72;1.00;;;14.00;99.90;;;;;;5094433;28;20303;-40
2021/05/11 03:13:35;;;;;;;1.13;1.02;;;14.00;99.90;;;;;;5094091;28;20258;-40
2021/05/11 03:16:02;;;;;;;1.42;1.17;;;14.00;99.90;;;;;;5094131;28;20265;-39
2021/05/11 03:18:30;;;;;;;0.80;0.80;;;13.90;99.90;;;;;;5094326;28;20210;-40
2021/05/11 03:20:58;;;;;;;1.17;1.08;;;13.90;99.90;;;;;;5093795;28;20202;-40
2021/05/11 03:23:25;;;;;;;0.93;0.73;;;13.90;99.90;;;;;;5093813;28;20234;-42
2021/05/11 03:25:52;;;;;;;0.82;0.82;;;13.90;99.90;;;;;;5093976;28;20276;-41
2021/05/11 03:28:19;;;;;;;4.72;0.90;;;13.90;99.90;;;;;;5093840;28;20246;-42
2021/05/11 03:30:46;;;;;;;1.50;0.90;;;13.90;99.90;;;;;;5093993;28;20242;-43
2021/05/11 03:33:13;;;;;;;0.60;0.60;;;13.90;99.90;;;;;;5093882;28;20293;-44
2021/05/11 03:35:40;;;;;;;2.10;0.88;;;13.90;99.90;;;;;;5093659;28;20649;-47
2021/05/11 03:38:09;;;;;;;2.17;1.05;;;13.90;99.90;;;;;;5093584;28;20233;-48
2021/05/11 03:40:37;;;;;;;1.20;1.10;;;13.90;99.90;;;;;;5093582;28;20242;-44
2021/05/11 03:43:06;;;;;;;1.50;1.40;;;13.90;99.90;;;;;;5093378;28;20673;-44
2021/05/11 03:45:36;;;;;;;2.58;1.10;;;13.90;99.90;;;;;;5093618;28;20310;-45
2021/05/11 03:48:05;;;;;;;0.82;0.73;;;13.90;99.90;;;;;;5093740;28;20703;-42
2021/05/11 03:50:32;;;;;;;0.65;0.65;;;13.90;99.90;;;;;;5093512;28;20285;-44
2021/05/11 03:53:01;;;;;;;1.20;1.00;;;13.90;99.90;;;;;;5093493;28;20242;-41
2021/05/11 03:55:29;;;;;;;2.25;1.10;;;13.90;99.90;;;;;;5093421;28;20238;-40
2021/05/11 03:57:56;;;;;;;0.88;0.88;;;13.90;99.90;;;;;;5093371;28;20234;-41
2021/05/11 04:00:24;;;;;;;3.65;1.42;;;13.90;99.90;;;;;;5092939;28;20567;-41
2021/05/11 04:02:52;;;;;;;1.30;1.20;;;13.90;99.90;;;;;;5091840;28;20242;-41
2021/05/11 04:05:20;;;;;;;2.08;1.25;;;13.80;99.90;;;;;;5092689;28;20700;-41
2021/05/11 04:07:50;;;;;;;2.13;1.20;;;13.80;99.90;;;;;;5092628;28;20253;-41
2021/05/11 04:10:21;;;;;;;2.25;1.40;;;13.80;99.90;;;;;;5092923;28;20214;-41
2021/05/11 04:13:21;;;;;;;1.88;1.30;;;13.70;99.90;;;;;;5092983;28;20256;-41
2021/05/11 04:18:34;;;;;;;2.25;1.15;;;13.60;99.90;;;;;;5092949;28;20210;-40
2021/05/11 04:21:02;;;;;;;1.35;1.25;;;13.60;99.90;;;;;;5092732;28;20237;-41
2021/05/11 04:23:29;;;;;;;1.48;1.20;;;13.60;99.90;;;;;;5092567;28;20214;-40
2021/05/11 04:25:57;;;;;;;3.53;1.00;;;13.60;99.90;;;;;;5092492;28;20258;-43
2021/05/11 04:28:25;;;;;;;1.92;1.25;;;13.60;99.90;;;;;;5092615;28;20211;-39
2021/05/11 04:30:52;;;;;;;1.20;1.10;;;13.60;99.90;;;;;;5092538;28;20207;-42
2021/05/11 04:33:20;;;;;;;1.95;1.27;;;13.60;99.90;;;;;;5092803;28;20218;-42
2021/05/11 04:35:47;;;;;;;1.42;1.33;;;13.50;99.90;;;;;;5092569;28;20203;-43
2021/05/11 04:38:15;;;;;;;4.35;1.20;;;13.50;99.90;;;;;;5092484;28;20642;-41
2021/05/11 04:40:42;;;;;;;2.22;1.13;;;13.60;99.90;;;;;;5092550;28;20235;-42
2021/05/11 04:43:12;;;;;;;4.78;1.55;;;13.60;99.90;;;;;;5092513;28;20264;-41
2021/05/11 04:45:40;;;;;;;1.23;1.13;;;13.50;99.90;;;;;;5092415;28;20258;-42
2021/05/11 04:48:08;;;;;;;2.67;1.30;;;13.60;99.90;;;;;;5092569;28;20263;-43
2021/05/11 04:50:36;;;;;;;1.33;1.23;;;13.60;99.90;;;;;;5092538;28;20294;-40
2021/05/11 04:53:04;;;;;;;5.00;1.10;;;13.70;99.90;;;;;;5092380;28;20268;-41
2021/05/11 04:55:32;;;;;;;3.35;1.73;;;13.80;99.90;;;;;;5092322;28;20298;-42
2021/05/11 04:58:00;;;;;;;1.40;1.30;;;13.80;99.90;;;;;;5092546;28;20661;-40
2021/05/11 05:00:27;;;;;;;1.75;1.23;;;13.80;99.90;;;;;;5092454;28;20210;-40
2021/05/11 05:02:55;;;;;;;2.72;1.80;;;13.90;99.90;;;;;;5093620;28;20242;-40
2021/05/11 05:05:25;;;;;;;1.70;1.45;;;13.90;99.90;;;;;;5092481;28;20226;-42
2021/05/11 05:07:53;;;;;;;1.25;1.15;;;14.00;99.90;;;;;;5092367;28;20259;-42
2021/05/11 05:10:20;;;;;;;1.95;1.17;;;14.10;99.90;;;;;;5092462;28;20250;-40
2021/05/11 05:12:48;;;;;;;1.83;1.15;;;14.20;99.90;;;;;;5092817;28;20203;-40
2021/05/11 05:15:16;;;;;;;1.20;1.10;;;14.30;99.90;;;;;;5092282;28;20241;-40
2021/05/11 05:17:43;;;;;;;0.88;0.88;;;14.40;99.90;;;;;;5092251;28;20632;-42
2021/05/11 05:20:13;;;;;;;1.38;1.27;;;14.50;99.90;;;;;;5092092;28;20206;-42
2021/05/11 05:22:42;;;;;;;3.05;1.40;;;14.60;99.90;;;;;;5091876;28;20690;-42
2021/05/11 05:25:12;;;;;;;3.22;1.70;;;14.80;99.90;;;;;;5091807;28;20661;-42
2021/05/11 05:27:45;;;;;;;1.27;1.17;;;15.00;99.90;;;;;;5092268;28;20206;-41
2021/05/11 05:30:13;;;;;;;2.60;1.73;;;15.10;99.90;;;;;;5092001;28;20267;-41
2021/05/11 05:32:40;;;;;;;2.38;1.40;;;15.30;99.90;;;;;;5091650;28;20264;-40
2021/05/11 05:35:08;;;;;;;3.05;1.50;;;15.40;99.90;;;;;;5091556;28;20236;-40
2021/05/11 05:37:42;;;;;;;2.20;1.30;;;15.50;99.90;;;;;;5091933;28;20210;-38
2021/05/11 05:40:12;;;;;;;2.40;1.50;;;15.60;99.90;;;;;;5091703;28;20206;-38
2021/05/11 05:42:39;;;;;;;1.80;1.70;;;15.60;99.90;;;;;;5091865;28;20256;-41
2021/05/11 05:45:08;;;;;;;1.75;1.55;;;15.60;99.90;;;;;;5091653;28;20688;-41
2021/05/11 05:47:35;;;;;;;1.42;1.33;;;15.70;99.90;;;;;;5091860;28;20256;-40
2021/05/11 05:50:07;;;;;;;1.80;1.70;;;15.70;99.90;;;;;;5091936;28;20214;-44
2021/05/11 05:52:37;;;;;;;1.90;1.80;;;15.80;99.90;;;;;;5091891;28;20237;-46
2021/05/11 05:55:07;;;;;;;2.63;1.73;;;15.90;99.90;;;;;;5091963;28;20289;-42
2021/05/11 05:57:34;;;;;;;2.08;1.88;;;16.00;99.90;;;;;;5091605;28;20256;-43
2021/05/11 06:00:03;;;;;;;1.80;1.60;;;16.00;99.90;;;;;;5091461;28;20203;-44
2021/05/11 06:02:30;;;;;;;2.38;2.17;;;16.10;99.90;;;;;;5091603;28;20298;-42
2021/05/11 06:04:58;;;;;;;2.60;2.40;;;16.10;99.90;;;;;;5091309;28;20268;-44
2021/05/11 06:07:25;;;;;;;2.80;2.40;;;16.20;99.90;;;;;;5091739;28;20638;-42
2021/05/11 06:09:54;;;;;;;4.32;2.53;;;16.20;99.90;;;;;;5091485;28;20210;-42
2021/05/11 06:12:28;;;;;;;2.08;1.95;;;16.20;99.90;;;;;;5091279;28;20256;-42
2021/05/11 06:17:02;;;;;;;2.70;2.00;;;16.10;99.90;;;;;;5091339;28;20256;-42
2021/05/11 06:17:48;;;;;;;1.90;1.80;;;16.20;99.90;;;;;;5090840;28;20257;-41
2021/05/11 06:20:16;;;;;;;3.38;2.03;;;16.20;99.90;;;;;;5090923;28;20207;-43
2021/05/11 06:22:44;;;;;;;2.58;2.33;;;16.10;99.90;;;;;;5091408;28;20214;-44
2021/05/11 06:25:12;;;;;;;2.95;2.60;;;16.10;99.90;;;;;;5091271;28;20270;-44
2021/05/11 06:27:40;;;;;;;3.28;2.40;;;16.10;99.90;;;;;;5094652;28;20242;-46
2021/05/11 06:30:09;;;;;;;3.53;2.05;;;16.20;99.90;;;;;;5095210;28;20224;-45
2021/05/11 06:32:37;;;;;;;4.70;1.80;;;16.30;99.90;;;;;;5095284;28;20234;-42
2021/05/11 06:35:08;;;;;;;3.05;2.17;;;16.40;99.90;;;;;;5095204;28;20206;-45
2021/05/11 06:37:36;;;;;;;2.30;2.00;;;16.70;99.90;;;;;;5095139;28;20736;-43
2021/05/11 06:40:04;;;;;;;2.30;2.10;;;16.80;99.90;;;;;;5095276;28;20541;-43
2021/05/11 06:42:32;;;;;;;6.85;1.95;;;16.80;99.90;;;;;;5094874;28;20245;-44
2021/05/11 06:45:07;;;;;;;3.00;2.63;;;16.80;99.90;;;;;;5094858;28;20227;-43
2021/05/11 06:47:56;;;;;;;2.17;1.98;;;16.80;99.90;;;;;;5094846;28;20225;-41
2021/05/11 06:50:37;;;;;;;2.97;2.50;;;16.80;99.90;;;;;;5094439;28;20280;-41
2021/05/11 06:53:12;;;;;;;2.75;2.47;;;16.80;99.90;;;;;;5094766;28;20203;-41
2021/05/11 06:55:41;;;;;;;2.95;2.17;;;16.90;99.90;;;;;;5094523;28;20627;-41
2021/05/11 06:58:09;;;;;;;3.80;2.35;;;17.00;99.90;;;;;;5094513;28;20309;-40
2021/05/11 07:00:42;;;;;;;4.78;2.25;;;17.10;99.90;;;;;;5094625;28;20225;-41
2021/05/11 07:03:10;;;;;;;4.43;2.28;;;17.30;99.70;;;;;;5094858;28;20264;-41
2021/05/11 07:05:37;;;;;;;3.47;2.28;;;17.40;99.70;;;;;;5094826;28;20703;-41
2021/05/11 07:08:12;;;;;;;2.92;2.63;;;17.50;99.50;;;;;;5094316;28;20297;-41
2021/05/11 07:10:41;;;;;;;4.68;2.50;;;17.50;99.30;;;;;;5094493;28;20278;-41
2021/05/11 07:13:10;;;;;;;3.10;2.80;;;17.50;99.40;;;;;;5094589;28;20629;-41
2021/05/11 07:15:41;;;;;;;3.42;2.67;;;17.60;99.40;;;;;;5094894;28;20210;-41
2021/05/11 07:18:13;;;;;;;3.55;2.85;;;17.60;99.30;;;;;;5094512;28;20245;-41
2021/05/11 07:20:42;;;;;;;3.30;3.00;;;17.50;99.40;;;;;;5094850;28;20206;-42
2021/05/11 07:23:10;;;;;;;2.97;2.25;;;17.60;99.40;;;;;;5094657;28;20213;-48
2021/05/11 07:25:42;;;;;;;2.72;2.53;;;17.70;99.20;;;;;;5094132;28;20373;-47
2021/05/11 07:31:13;;;;;;;3.33;3.00;;;17.60;99.20;;;;;;5094304;28;20206;-44
2021/05/11 07:33:43;;;;;;;3.58;3.22;;;17.40;99.60;;;;;;5093911;28;20241;-44
2021/05/11 07:36:12;;;;;;;3.53;3.10;;;17.30;99.70;;;;;;5093630;28;20247;-46
2021/05/11 07:38:40;;;;;;;4.28;2.75;;;17.30;99.80;;;;;;5093554;28;20233;-45
2021/05/11 07:41:08;;;;;;;3.65;3.13;;;17.20;99.90;;;;;;5093868;28;20255;-46
2021/05/11 07:43:37;;;;;;;4.88;3.03;;;17.10;99.90;;;;;;5094037;28;20298;-48
2021/05/11 08:05:39;;;;;;;4.68;3.83;;;17.20;99.90;;;;;;5093541;28;20268;-42
2021/05/11 08:14:25;;;;;;;4.15;3.75;;;17.00;99.90;;;;;;5093448;28;20613;-47
2021/05/11 08:16:31;;;;;;;5.47;3.83;;;17.00;99.90;;;;;;5093230;28;20206;-45
2021/05/11 08:19:05;;;;;;;6.55;4.07;;;16.90;99.90;;;;;;5094156;28;20238;-44
2021/05/11 08:22:07;;;;;;;3.80;3.50;;;16.80;99.90;;;;;;5093392;28;20271;-43
2021/05/11 08:27:34;;;;;;;3.70;3.40;;;16.90;99.90;;;;;;5093006;28;20230;-43
2021/05/11 08:30:06;;;;;;;5.57;3.80;;;16.90;99.90;;;;;;5093366;28;20237;-47
2021/05/11 08:32:33;;;;;;;4.70;3.33;;;16.80;99.90;;;;;;5092739;28;20203;-47
2021/05/11 08:35:01;;;;;;;3.67;3.35;;;16.80;99.90;;;;;;5092877;28;20207;-45
2021/05/11 08:37:29;;;;;;;4.93;4.05;;;16.90;99.90;;;;;;5092931;28;20198;-44
2021/05/11 08:39:56;;;;;;;4.45;4.05;;;16.90;99.90;;;;;;5092868;28;20293;-48
2021/05/11 08:42:24;;;;;;;4.35;4.05;;;16.90;99.90;;;;;;5092920;28;20203;-45
2021/05/11 08:44:51;;;;;;;4.05;3.75;;;17.00;99.90;;;;;;5092493;28;20226;-42
2021/05/11 08:47:20;;;;;;;5.20;4.68;;;17.00;99.90;;;;;;5092659;28;20313;-42
2021/05/11 08:49:48;;;;;;;5.32;4.38;;;17.10;99.90;;;;;;5093030;28;20665;-47
2021/05/11 08:52:25;;;;;;;5.72;4.72;;;17.20;99.90;;;;;;5092612;28;20335;-43
2021/05/11 09:06:40;;;;;;;8.90;6.10;;;17.40;99.90;;;;;;5092037;28;20657;-41
2021/05/11 09:09:25;;;;;;;6.05;5.55;;;17.60;99.90;;;;;;5092024;28;20238;-45
2021/05/11 09:23:34;;;;;;;6.53;5.75;;;18.90;98.30;;;;;;5057951;28;20243;-42
2021/05/11 09:26:10;;;;;;;5.88;5.30;;;18.80;98.70;;;;;;5093207;28;20241;-43
2021/05/11 09:28:43;;;;;;;6.60;5.88;;;18.70;98.50;;;;;;5092203;28;20207;-43
2021/05/11 09:31:29;;;;;;;6.40;5.72;;;18.70;98.60;;;;;;5092126;28;20210;-42
2021/05/11 09:34:13;;;;;;;5.88;5.28;;;18.90;98.40;;;;;;5092064;28;20206;-48
2021/05/11 09:45:56;;;;;;;6.70;6.15;;;19.60;97.40;;;;;;5091331;28;20213;-42
2021/05/11 09:57:13;;;;;;;7.93;6.07;;;19.60;97.00;;;;;;5091676;28;20294;-44
2021/05/11 10:48:40;;;;;;;7.65;6.95;;;20.40;95.10;;;;;;5094453;28;20297;-44
2021/05/11 10:51:17;;;;;;;6.30;5.80;;;20.50;94.80;;;;;;5094934;28;20656;-43
2021/05/11 10:53:57;;;;;;;7.05;6.45;;;20.60;94.50;;;;;;5094718;28;20234;-44
2021/05/11 10:56:55;;;;;;;7.03;6.38;;;20.60;94.60;;;;;;5094393;28;20292;-44
2021/05/11 10:59:34;;;;;;;6.38;5.40;;;20.50;94.70;;;;;;5094595;28;20211;-43
2021/05/11 11:02:24;;;;;;;7.00;6.30;;;20.40;94.90;;;;;;5094376;28;20297;-42
2021/05/11 11:04:52;;;;;;;7.25;6.65;;;20.40;95.00;;;;;;5094445;28;20275;-43
2021/05/11 11:07:34;;;;;;;7.78;7.18;;;20.30;95.00;;;;;;5094174;28;20226;-42
2021/05/11 11:10:07;;;;;;;6.88;6.28;;;20.20;95.00;;;;;;5094351;28;20287;-43
2021/05/11 11:12:43;;;;;;;7.85;6.35;;;20.20;95.10;;;;;;5093876;28;20622;-43
2021/05/11 11:15:14;;;;;;;7.20;6.65;;;20.20;95.10;;;;;;5094172;28;20249;-42
2021/05/11 11:17:43;;;;;;;6.40;5.80;;;20.20;95.00;;;;;;5094217;28;20293;-43
2021/05/11 11:20:13;;;;;;;9.23;7.85;;;20.20;95.00;;;;;;5094186;28;20294;-47
2021/05/11 11:25:28;;;;;;;9.45;6.88;;;20.30;94.80;;;;;;5062913;28;20230;-44
2021/05/11 11:27:56;;;;;;;6.70;6.20;;;20.30;94.80;;;;;;5094022;28;20317;-44
2021/05/11 11:30:23;;;;;;;7.10;6.50;;;20.20;95.00;;;;;;5093984;28;20246;-44
2021/05/11 11:32:51;;;;;;;7.93;7.15;;;20.00;95.60;;;;;;5093820;28;20259;-45
2021/05/11 11:35:20;;;;;;;8.68;7.88;;;19.80;95.60;;;;;;5093879;28;20293;-45
2021/05/11 11:37:50;;;;;;;9.32;8.43;;;19.60;96.00;;;;;;5093421;28;20219;-42
2021/05/11 11:40:17;;;;;;;10.45;8.88;;;19.40;96.50;;;;;;5094040;28;20298;-42
2021/05/11 11:42:47;;;;;;;9.25;8.35;;;19.20;96.70;;;;;;5093966;28;20241;-42
2021/05/11 11:45:25;;;;;;;8.57;7.82;;;19.10;97.10;;;;;;5093689;28;20211;-45
2021/05/11 11:47:56;;;;;;;9.38;8.57;;;18.90;97.40;;;;;;5093769;28;20235;-41
2021/05/11 11:50:24;;;;;;;9.82;8.63;;;18.80;97.60;;;;;;5093920;28;20661;-42
2021/05/11 11:53:02;;;;;;;8.80;8.00;;;18.60;97.80;;;;;;5093782;28;20252;-41
2021/05/11 11:55:53;;;;;;;9.82;7.68;;;18.50;98.00;;;;;;5093682;28;20587;-41
2021/05/11 11:58:22;;;;;;;9.70;8.80;;;18.40;98.50;;;;;;5093317;28;20237;-42
2021/05/11 12:00:50;;;;;;;8.95;7.97;;;18.30;98.40;;;;;;5092848;28;20637;-42
2021/05/11 12:03:21;;;;;;;8.20;7.05;;;18.30;98.50;;;;;;5093263;28;20210;-42
2021/05/11 12:05:52;;;;;;;7.57;6.85;;;18.40;98.60;;;;;;5092940;28;20565;-44
2021/05/11 12:08:21;;;;;;;7.68;6.97;;;18.60;98.40;;;;;;5093123;28;20310;-42
2021/05/11 12:10:52;;;;;;;9.00;8.15;;;18.80;98.30;;;;;;5093026;28;20202;-42
2021/05/11 12:13:23;;;;;;;9.52;8.15;;;19.00;98.10;;;;;;5093012;28;20206;-42
2021/05/11 12:16:10;;;;;;;8.75;7.95;;;19.10;98.00;;;;;;5092930;28;20203;-42
2021/05/11 12:18:41;;;;;;;7.90;7.20;;;19.30;98.00;;;;;;5093077;28;20260;-42
2021/05/11 12:21:10;;;;;;;9.10;6.90;;;19.40;97.70;;;;;;5092760;28;20245;-42
2021/05/11 12:23:38;;;;;;;7.38;6.78;;;19.60;97.60;;;;;;5092289;28;20255;-43
2021/05/11 12:26:07;;;;;;;7.45;6.72;;;19.80;97.30;;;;;;5093019;28;20313;-44
2021/05/11 12:28:37;;;;;;;7.20;6.60;;;20.00;96.90;;;;;;5092675;28;20227;-42
2021/05/11 12:31:06;;;;;;;7.85;7.15;;;20.10;96.60;;;;;;5092803;28;20264;-44
2021/05/11 12:33:37;;;;;;;7.18;6.57;;;20.10;96.50;;;;;;5092438;28;20764;-42
2021/05/11 12:36:19;;;;;;;7.20;6.50;;;20.10;96.50;;;;;;5092437;28;20218;-43
2021/05/11 12:38:48;;;;;;;7.95;7.18;;;20.20;96.40;;;;;;5092792;28;20206;-44
2021/05/11 12:41:35;;;;;;;9.35;8.55;;;20.20;96.30;;;;;;5092514;28;20248;-43
2021/05/11 12:44:04;;;;;;;8.90;8.10;;;20.10;96.40;;;;;;5092615;28;20346;-43
2021/05/11 12:46:36;;;;;;;8.25;7.55;;;19.90;96.70;;;;;;5092254;28;20249;-43
2021/05/11 12:49:06;;;;;;;10.52;9.55;;;19.70;96.90;;;;;;5092560;28;20249;-44
2021/05/11 12:51:37;;;;;;;10.23;9.30;;;19.50;97.10;;;;;;5092803;28;20626;-42
2021/05/11 12:54:20;;;;;;;11.57;10.35;;;19.40;97.40;;;;;;5092715;28;20210;-42
2021/05/11 12:57:15;;;;;;;8.95;7.88;;;19.30;97.50;;;;;;5092976;28;20210;-45
2021/05/11 12:59:55;;;;;;;9.02;8.25;;;19.20;97.60;;;;;;5092909;28;20534;-43
2021/05/11 13:02:37;;;;;;;9.85;7.00;;;19.10;97.60;;;;;;5092348;28;20206;-43
2021/05/11 13:16:56;;;;;;;7.18;6.57;;;19.00;97.90;;;;;;5093965;28;20218;-44
2021/05/11 13:19:54;;;;;;;8.52;7.90;;;18.90;98.00;;;;;;5092192;28;20210;-43
2021/05/11 13:22:30;;;;;;;11.85;10.73;;;18.80;98.10;;;;;;5092471;28;20237;-42
2021/05/11 13:25:15;;;;;;;10.75;9.75;;;18.80;98.30;;;;;;5092550;28;20242;-42
2021/05/11 13:27:49;;;;;;;17.73;16.00;;;18.70;98.40;;;;;;5094570;28;20265;-44
2021/05/11 13:30:30;;;;;;;15.77;14.23;;;18.60;98.50;;;;;;5092503;28;20212;-41
2021/05/11 13:33:11;;;;;;;20.70;18.55;;;18.60;98.60;;;;;;5092541;28;20285;-41
2021/05/11 13:35:39;;;;;;;11.75;10.75;;;18.60;98.70;;;;;;5092165;28;20210;-43
2021/05/11 13:38:07;;;;;;;8.98;8.07;;;18.60;98.80;;;;;;5096131;28;20554;-41
2021/05/11 13:40:34;;;;;;;7.63;6.93;;;18.50;98.90;;;;;;5095640;28;20233;-41
2021/05/11 13:43:02;;;;;;;8.02;7.43;;;18.50;99.10;;;;;;5095890;28;20298;-41
2021/05/11 13:45:30;;;;;;;8.68;7.97;;;18.40;99.20;;;;;;5096573;28;20234;-41
2021/05/11 13:48:01;;;;;;;8.85;7.78;;;18.30;99.30;;;;;;5096542;28;20313;-41
2021/05/11 13:50:42;;;;;;;8.23;7.45;;;18.30;99.60;;;;;;5096807;28;20210;-42
2021/05/11 13:53:10;;;;;;;10.10;6.88;;;18.20;99.70;;;;;;5096449;28;20213;-42
2021/05/11 13:55:44;;;;;;;7.25;6.65;;;18.20;99.70;;;;;;5095885;28;20242;-41
2021/05/11 14:03:45;;;;;;;8.55;7.78;;;18.30;99.90;;;;;;5095872;28;20249;-41
2021/05/11 14:06:12;;;;;;;8.18;7.45;;;18.30;99.90;;;;;;5096335;28;20314;-41
2021/05/11 14:08:40;;;;;;;8.38;7.70;;;18.20;99.90;;;;;;5095740;28;20237;-42
2021/05/11 14:11:08;;;;;;;8.57;7.88;;;18.20;99.90;;;;;;5095678;28;20268;-41
2021/05/11 14:13:35;;;;;;;9.55;8.73;;;18.20;99.90;;;;;;5095757;28;20233;-41
2021/05/11 14:16:03;;;;;;;8.38;7.57;;;18.10;99.90;;;;;;5095875;28;20210;-41
2021/05/11 14:18:33;;;;;;;9.00;7.72;;;18.10;99.90;;;;;;5095709;28;20245;-41
2021/05/11 14:21:02;;;;;;;8.75;7.90;;;18.10;99.90;;;;;;5095391;28;20217;-40
2021/05/11 14:23:30;;;;;;;8.73;7.93;;;18.10;99.90;;;;;;5095295;28;20253;-41
2021/05/11 14:25:58;;;;;;;8.38;7.53;;;18.00;99.90;;;;;;5095646;28;20254;-41
2021/05/11 14:28:26;;;;;;;10.45;8.07;;;18.00;99.90;;;;;;5095123;28;20656;-41
2021/05/11 14:30:54;;;;;;;7.82;7.22;;;17.90;99.90;;;;;;5095544;28;20202;-43
2021/05/11 14:33:22;;;;;;;8.32;7.53;;;17.90;99.90;;;;;;5095992;28;20206;-42
2021/05/11 14:35:50;;;;;;;8.23;7.53;;;17.80;99.90;;;;;;5095602;28;20214;-41
2021/05/11 14:38:18;;;;;;;9.52;8.63;;;17.80;99.90;;;;;;5095875;28;20207;-42
2021/05/11 14:40:46;;;;;;;7.82;7.22;;;17.80;99.90;;;;;;5095732;28;20242;-41
2021/05/11 14:43:13;;;;;;;9.80;9.00;;;17.70;99.90;;;;;;5095834;28;20709;-41
2021/05/11 14:45:41;;;;;;;9.65;8.75;;;17.60;99.90;;;;;;5094680;28;20208;-41
2021/05/11 14:48:09;;;;;;;9.70;8.57;;;17.40;99.90;;;;;;5093853;28;20279;-41
2021/05/11 14:50:37;;;;;;;9.40;8.45;;;17.30;99.90;;;;;;5095212;28;20207;-41
2021/05/11 14:53:05;;;;;;;8.48;7.78;;;17.20;99.90;;;;;;5094397;28;20211;-41
2021/05/11 14:55:33;;;;;;;9.30;8.55;;;17.20;99.90;;;;;;5094505;28;20260;-43
2021/05/11 14:58:01;;;;;;;10.60;9.63;;;17.10;99.90;;;;;;5094767;28;20214;-42
2021/05/11 15:00:29;;;;;;;11.00;10.00;;;17.00;99.90;;;;;;5094408;28;20203;-41
2021/05/11 15:03:00;;;;;;;9.85;8.85;;;17.10;99.90;;;;;;5094706;28;20238;-42
2021/05/11 15:05:27;;;;;;;10.95;9.02;;;17.20;99.90;;;;;;5094115;28;20207;-45
2021/05/11 15:07:55;;;;;;;10.68;9.68;;;17.30;99.90;;;;;;5094015;28;20317;-41
2021/05/11 15:10:23;;;;;;;10.02;8.80;;;17.40;99.90;;;;;;5094060;28;20254;-43
2021/05/11 15:12:53;;;;;;;11.52;10.35;;;17.50;99.90;;;;;;5095236;28;20580;-41
2021/05/11 15:15:21;;;;;;;11.68;10.50;;;17.60;99.90;;;;;;5094065;28;20703;-42
2021/05/11 15:18:03;;;;;;;11.32;10.02;;;17.70;99.90;;;;;;5093706;28;20213;-41
2021/05/11 15:20:33;;;;;;;11.32;10.07;;;17.70;99.90;;;;;;5093977;28;20249;-42
2021/05/11 15:23:05;;;;;;;12.75;11.23;;;17.70;99.90;;;;;;5095201;28;20206;-43
2021/05/11 15:25:33;;;;;;;13.20;11.45;;;17.50;99.90;;;;;;5094378;28;20246;-42
2021/05/11 15:28:02;;;;;;;11.90;10.60;;;17.50;99.90;;;;;;5094210;28;20226;-45
2021/05/11 15:30:31;;;;;;;11.68;10.50;;;17.40;99.90;;;;;;5093901;28;20207;-41
2021/05/11 15:32:59;;;;;;;12.15;11.05;;;17.40;99.90;;;;;;5093507;28;20229;-42
2021/05/11 15:35:33;;;;;;;12.05;9.98;;;17.40;99.90;;;;;;5093911;28;20217;-41
2021/05/11 15:38:02;;;;;;;11.50;10.40;;;17.40;99.90;;;;;;5093599;28;20276;-41
2021/05/11 15:40:32;;;;;;;11.63;10.52;;;17.30;99.90;;;;;;5093650;28;20257;-42
2021/05/11 15:43:00;;;;;;;12.52;11.27;;;17.20;99.90;;;;;;5093234;28;20730;-41
2021/05/11 15:45:28;;;;;;;13.25;12.05;;;17.10;99.90;;;;;;5091763;28;20772;-49
2021/05/11 15:47:56;;;;;;;12.27;10.70;;;17.00;99.90;;;;;;5092976;28;20805;-42
2021/05/11 15:50:29;;;;;;;11.88;10.68;;;16.80;99.90;;;;;;5093644;28;20236;-42
2021/05/11 15:53:01;;;;;;;11.60;10.50;;;16.70;99.90;;;;;;5093541;28;20206;-42
2021/05/11 15:55:29;;;;;;;11.40;10.32;;;16.60;99.90;;;;;;5093267;28;20303;-41
2021/05/11 15:57:57;;;;;;;11.52;10.32;;;16.60;99.90;;;;;;5093114;28;20268;-42
2021/05/11 16:00:24;;;;;;;12.63;11.45;;;16.60;99.90;;;;;;5092396;28;20531;-42
2021/05/11 16:02:54;;;;;;;11.95;10.80;;;16.60;99.90;;;;;;5093309;28;20302;-42
2021/05/11 16:05:23;;;;;;;12.32;11.07;;;16.60;99.90;;;;;;5093381;28;20211;-42